KBVO/BVO METAR and TAF weather

Enter ICAO airport designator
Station Type Date Time Source
KBVO METAR 2019/12/06 03:53 UTC NOAA

KBVO 060353Z AUTO 00000KT 10SM FEW095 09/06 A2993 RMK AO2 SLP133 T00890056


Station Type Date Time Source
KBVO Decoded METAR 2019/12/06 03:53 UTC NOAA

BARTLESVILLE MUNICIPAL AIRPORT , OK, United States (KBVO) 36-46N 96-01W 210M
Dec 05, 2019 - 10:53 PM EST / 2019.12.06 0353 UTC
Wind: Calm:0
Visibility: 10 mile(s):0
Sky conditions: mostly clear
Temperature: 48.0 F (8.9 C)
Dew Point: 42.1 F (5.6 C)
Relative Humidity: 79%
Pressure (altimeter): 29.93 in. Hg (1013 hPa)
ob: KBVO 060353Z AUTO 00000KT 10SM FEW095 09/06 A2993 RMK AO2 SLP133 T00890056
cycle: 4

Station Type Date Time Source
KBVO TAF 2019/12/05 21:24 UTC NOAA

TAF
AMD KBVO 052121Z 0521/0618 17010KT P6SM SKC
FM060000 14003KT P6SM BKN050
TEMPO 0604/0608 5SM -SHRA BKN025
FM060900 36012G20KT P6SM BKN020

Example: see airport list